Time;durP1;ratioP1;P1;durP2;ratioP2;P2;SDS_P1;SDS_P2;PMS_P1;PMS_P2;Temp;Humidity;BMP_temperature;BMP_pressure;BME280_temperature;BME280_humidity;BME280_pressure;Samples;Min_cycle;Max_cycle;Signal;HPM_P1;HPM_P2
2022/03/13 00:02:11;;;;;;;;;9.00;9.00;;;;;10.46;55.89;100653.22;5062382;28;45301;-59
2022/03/13 00:04:36;;;;;;;;;10.75;10.75;;;;;10.49;55.85;100658.44;5060936;28;45335;-59
2022/03/13 00:07:09;;;;;;;;;10.25;9.75;;;;;10.48;55.89;100651.47;5062049;28;45295;-59
2022/03/13 00:09:35;;;;;;;;;10.25;10.25;;;;;10.51;55.91;100647.00;5061856;28;45300;-59
2022/03/13 00:12:04;;;;;;;;;11.50;11.50;;;;;10.54;55.52;100656.59;5060705;28;45360;-59
2022/03/13 00:14:31;;;;;;;;;11.25;9.50;;;;;10.55;55.66;100651.34;5061035;28;45568;-60
2022/03/13 00:16:57;;;;;;;;;9.00;8.00;;;;;10.55;55.54;100648.72;5061764;28;46501;-60
2022/03/13 00:19:24;;;;;;;;;9.75;8.00;;;;;10.55;55.54;100638.19;5061880;28;45265;-59
2022/03/13 00:21:52;;;;;;;;;8.25;8.25;;;;;10.57;55.77;100652.16;5062123;28;45422;-59
2022/03/13 00:24:20;;;;;;;;;8.75;8.00;;;;;10.61;55.43;100654.75;5060541;28;45585;-59
2022/03/13 00:26:47;;;;;;;;;7.50;7.50;;;;;10.62;55.69;100644.22;5061421;28;45331;-59
2022/03/13 00:29:13;;;;;;;;;8.50;6.50;;;;;10.60;55.72;100648.63;5061980;28;45262;-59
2022/03/13 00:31:39;;;;;;;;;6.75;6.50;;;;;10.63;55.45;100652.97;5062062;28;45333;-59
2022/03/13 00:34:05;;;;;;;;;8.50;8.00;;;;;10.64;55.62;100652.06;5061907;28;45530;-59
2022/03/13 00:36:30;;;;;;;;;8.00;7.00;;;;;10.66;55.71;100655.56;5061758;28;46968;-60
2022/03/13 00:38:56;;;;;;;;;5.25;5.25;;;;;10.67;55.60;100650.25;5070485;28;45392;-59
2022/03/13 00:41:21;;;;;;;;;13.75;10.75;;;;;10.69;55.44;100648.50;5060850;28;45320;-59
2022/03/13 00:43:47;;;;;;;;;8.00;8.00;;;;;10.72;55.40;100650.19;5061490;28;45166;-59
2022/03/13 00:46:12;;;;;;;;;7.75;7.00;;;;;10.73;55.62;100642.28;5062001;28;45275;-59
2022/03/13 00:48:37;;;;;;;;;12.00;8.50;;;;;10.75;55.47;100644.03;5061702;28;45214;-59
2022/03/13 00:51:03;;;;;;;;;9.50;8.75;;;;;10.75;55.54;100638.78;5061758;28;45174;-60
2022/03/13 00:53:28;;;;;;;;;5.50;5.50;;;;;10.77;55.51;100635.22;5061687;28;45158;-60
2022/03/13 00:55:54;;;;;;;;;7.25;7.25;;;;;10.78;55.43;100636.97;5061436;28;46089;-59
2022/03/13 00:58:19;;;;;;;;;6.50;6.50;;;;;10.79;55.51;100643.06;5060124;28;45295;-60
2022/03/13 01:00:45;;;;;;;;;7.75;6.50;;;;;10.80;55.22;100632.53;5060497;28;45271;-60
2022/03/13 01:03:33;;;;;;;;;6.75;6.75;;;;;10.83;55.29;100636.88;5060257;28;45357;-60
2022/03/13 01:05:58;;;;;;;;;9.00;8.00;;;;;10.85;55.27;100632.47;5061261;28;45322;-60
2022/03/13 01:08:24;;;;;;;;;7.75;7.75;;;;;10.85;55.37;100628.06;5059778;28;45576;-60
2022/03/13 01:10:50;;;;;;;;;10.00;9.00;;;;;10.84;55.27;100633.34;5061265;28;45449;-59
2022/03/13 01:13:16;;;;;;;;;8.25;6.25;;;;;10.84;55.31;100626.34;5059808;28;45228;-60
2022/03/13 01:15:49;;;;;;;;;8.00;6.50;;;;;10.86;55.11;100626.31;5061153;28;47326;-59
2022/03/13 01:18:15;;;;;;;;;7.50;6.75;;;;;10.87;55.27;100626.28;5061173;28;45261;-59
2022/03/13 01:20:41;;;;;;;;;9.00;8.50;;;;;10.89;54.93;100619.25;5061228;28;45355;-59
2022/03/13 01:23:11;;;;;;;;;7.25;7.25;;;;;10.90;55.17;100620.09;5061123;28;45168;-59
2022/03/13 01:25:37;;;;;;;;;8.75;8.25;;;;;10.93;55.02;100612.19;5060874;28;45386;-59
2022/03/13 01:28:03;;;;;;;;;8.00;8.00;;;;;10.95;55.04;100607.72;5060592;28;45284;-59
2022/03/13 01:30:28;;;;;;;;;6.50;6.25;;;;;10.95;54.98;100610.38;5061138;28;45298;-59
2022/03/13 01:32:54;;;;;;;;;7.75;7.75;;;;;10.96;55.28;100600.72;5061019;28;45462;-60
2022/03/13 01:35:21;;;;;;;;;8.25;7.75;;;;;10.97;55.08;100598.06;5061079;28;46639;-60
2022/03/13 01:37:47;;;;;;;;;8.50;8.25;;;;;10.96;55.28;100592.84;5059401;28;45673;-59
2022/03/13 01:40:17;;;;;;;;;7.00;6.75;;;;;11.00;55.00;100591.88;5068499;28;45441;-59
2022/03/13 01:42:44;;;;;;;;;8.00;7.25;;;;;11.00;54.83;100590.13;5060552;28;45524;-59
2022/03/13 01:45:15;;;;;;;;;9.50;8.25;;;;;11.01;54.93;100585.75;5060482;28;45350;-59
2022/03/13 01:47:41;;;;;;;;;8.25;7.25;;;;;11.03;54.82;100583.94;5060560;28;45388;-59
2022/03/13 01:50:09;;;;;;;;;10.00;8.50;;;;;11.06;54.84;100581.25;5060729;28;45323;-59
2022/03/13 01:52:35;;;;;;;;;9.00;8.00;;;;;11.04;54.80;100578.66;5060404;28;45397;-59
2022/03/13 01:55:02;;;;;;;;;8.00;6.75;;;;;11.06;54.85;100579.47;5060311;28;45336;-59
2022/03/13 01:57:28;;;;;;;;;10.00;9.00;;;;;11.05;54.92;100575.13;5060384;28;45340;-60
2022/03/13 01:59:56;;;;;;;;;9.50;9.50;;;;;11.06;54.78;100571.59;5060551;28;45185;-59
2022/03/13 02:02:23;;;;;;;;;8.25;8.00;;;;;11.06;54.71;100565.47;5059277;28;45510;-59
2022/03/13 02:04:53;;;;;;;;;8.50;8.50;;;;;11.10;54.65;100568.91;5060151;28;46142;-59
2022/03/13 02:07:22;;;;;;;;;9.00;7.25;;;;;11.08;54.60;100566.34;5060627;28;45275;-59
2022/03/13 02:09:48;;;;;;;;;10.75;9.75;;;;;11.07;54.74;100564.59;5059960;28;45352;-59
2022/03/13 02:12:18;;;;;;;;;10.00;10.00;;;;;11.06;54.82;100566.34;5058820;28;45550;-59
2022/03/13 02:14:43;;;;;;;;;8.50;8.50;;;;;11.05;54.67;100561.97;5060212;28;45323;-59
2022/03/13 02:17:09;;;;;;;;;11.00;9.00;;;;;11.03;54.63;100563.78;5060289;28;45286;-59
2022/03/13 02:19:34;;;;;;;;;8.00;8.00;;;;;11.00;54.71;100550.66;5060400;28;45402;-60
2022/03/13 02:22:00;;;;;;;;;10.75;8.50;;;;;10.99;54.58;100548.97;5060382;28;45416;-59
2022/03/13 02:24:26;;;;;;;;;10.25;10.25;;;;;10.98;54.47;100551.59;5059954;28;45391;-59
2022/03/13 02:27:05;;;;;;;;;11.75;9.75;;;;;10.95;54.59;100542.00;5059796;28;45377;-59
2022/03/13 02:29:32;;;;;;;;;6.25;5.25;;;;;10.93;54.63;100543.81;5059931;28;45315;-59
2022/03/13 02:31:59;;;;;;;;;12.50;12.00;;;;;10.91;54.41;100534.22;5060115;28;45295;-59
2022/03/13 02:34:25;;;;;;;;;10.50;10.50;;;;;10.87;54.35;100533.41;5059602;28;45399;-59
2022/03/13 02:36:50;;;;;;;;;8.25;8.00;;;;;10.83;54.76;100529.97;5056699;28;45424;-59
2022/03/13 02:39:17;;;;;;;;;11.00;11.00;;;;;10.81;54.39;100530.91;5066163;28;45338;-59
2022/03/13 02:41:43;;;;;;;;;13.25;10.25;;;;;10.75;54.53;100516.09;5059141;28;45399;-60
2022/03/13 02:44:12;;;;;;;;;13.00;11.00;;;;;10.73;54.33;100520.53;5059549;28;46303;-59
2022/03/13 02:46:46;;;;;;;;;14.25;13.25;;;;;10.70;54.40;100516.19;5060001;28;45228;-59
2022/03/13 02:49:18;;;;;;;;;15.50;14.50;;;;;10.68;54.34;100522.38;5059807;28;45241;-58
2022/03/13 02:51:44;;;;;;;;;12.00;11.50;;;;;10.63;54.22;100516.31;5059668;28;45402;-59
2022/03/13 02:54:09;;;;;;;;;13.50;11.00;;;;;10.60;54.44;100517.22;5057019;28;46322;-59
2022/03/13 02:56:35;;;;;;;;;9.50;8.75;;;;;10.55;54.28;100525.22;5059558;28;45424;-59
2022/03/13 02:59:00;;;;;;;;;10.00;8.00;;;;;10.52;54.38;100509.50;5059736;28;45956;-59
2022/03/13 03:01:26;;;;;;;;;13.00;12.00;;;;;10.46;54.33;100504.34;5059557;28;45536;-59
2022/03/13 03:04:02;;;;;;;;;14.00;13.25;;;;;10.46;54.25;100511.38;5058397;28;46558;-59
2022/03/13 03:06:29;;;;;;;;;11.00;11.00;;;;;10.44;54.40;100506.16;5062718;28;45414;-59
2022/03/13 03:08:56;;;;;;;;;12.00;12.00;;;;;10.39;54.41;100503.59;5048610;28;45194;-59
2022/03/13 03:11:22;;;;;;;;;9.25;9.25;;;;;10.34;54.44;100507.13;5058948;28;45401;-59
2022/03/13 03:13:47;;;;;;;;;12.50;9.00;;;;;10.32;54.40;100509.81;5060983;28;45383;-59
2022/03/13 03:16:13;;;;;;;;;11.25;10.50;;;;;10.31;54.22;100502.81;5061909;28;45402;-59
2022/03/13 03:18:38;;;;;;;;;12.75;12.00;;;;;10.30;54.47;100508.97;5063205;28;45326;-59
2022/03/13 03:21:04;;;;;;;;;11.75;11.00;;;;;10.24;54.21;100507.31;5061737;28;46010;-59
2022/03/13 03:23:29;;;;;;;;;9.75;9.75;;;;;10.25;54.36;100506.41;5062922;28;45326;-59
2022/03/13 03:25:55;;;;;;;;;12.00;9.75;;;;;10.25;54.19;100502.91;5062762;28;45645;-59
2022/03/13 03:28:22;;;;;;;;;11.75;9.75;;;;;10.21;54.36;100507.38;5060919;28;45380;-59
2022/03/13 03:30:47;;;;;;;;;12.50;10.75;;;;;10.17;54.25;100504.81;5062402;28;45488;-59
2022/03/13 03:33:13;;;;;;;;;12.25;12.25;;;;;10.16;54.25;100505.69;5062748;28;45423;-59
2022/03/13 03:35:38;;;;;;;;;12.25;10.50;;;;;10.14;54.26;100508.34;5062853;28;45323;-59
2022/03/13 03:38:03;;;;;;;;;10.75;10.25;;;;;10.13;54.33;100511.00;5064901;28;45237;-59
2022/03/13 03:40:31;;;;;;;;;13.00;11.50;;;;;10.10;54.47;100509.31;5069579;28;45261;-59
2022/03/13 03:42:59;;;;;;;;;14.25;12.25;;;;;10.09;53.92;100504.94;5062519;28;46161;-59
2022/03/13 03:45:25;;;;;;;;;13.50;11.50;;;;;10.06;54.37;100508.47;5062465;28;45296;-59
2022/03/13 03:47:50;;;;;;;;;10.25;10.00;;;;;10.04;54.32;100494.50;5062854;28;45278;-59
2022/03/13 03:50:16;;;;;;;;;9.50;9.50;;;;;10.04;54.27;100506.78;5062531;28;45228;-59
2022/03/13 03:52:45;;;;;;;;;12.75;11.00;;;;;10.00;54.16;100497.19;5062544;28;45871;-59
2022/03/13 03:55:10;;;;;;;;;9.75;9.75;;;;;9.97;54.13;100492.84;5062332;28;45339;-59
2022/03/13 03:57:36;;;;;;;;;11.50;8.75;;;;;9.98;54.12;100493.75;5060940;28;45340;-59
2022/03/13 04:00:05;;;;;;;;;9.25;9.25;;;;;9.95;54.28;100492.03;5061042;28;45312;-59
2022/03/13 04:02:31;;;;;;;;;9.50;9.50;;;;;9.92;54.28;100489.44;5062468;28;46655;-59
2022/03/13 04:04:56;;;;;;;;;12.25;11.25;;;;;9.88;54.26;100485.13;5060772;28;45267;-59
2022/03/13 04:07:21;;;;;;;;;7.25;7.25;;;;;9.85;54.29;100486.06;5062832;28;45288;-59
2022/03/13 04:09:47;;;;;;;;;7.00;7.00;;;;;9.83;54.12;100486.97;5061910;28;45404;-59
2022/03/13 04:12:13;;;;;;;;;11.25;11.00;;;;;9.82;54.41;100487.84;5062150;28;45501;-59
2022/03/13 04:14:38;;;;;;;;;13.25;8.75;;;;;9.80;54.06;100481.75;5060835;28;45267;-60
2022/03/13 04:17:07;;;;;;;;;14.25;9.00;;;;;9.81;54.16;100492.25;5062272;28;45507;-59
2022/03/13 04:19:32;;;;;;;;;9.25;9.25;;;;;9.79;54.26;100494.00;5062114;28;45442;-59
2022/03/13 04:21:58;;;;;;;;;7.25;5.75;;;;;9.79;54.31;100493.16;5062165;28;45425;-59
2022/03/13 04:24:24;;;;;;;;;7.75;7.25;;;;;9.79;54.13;100487.91;5061749;28;45265;-59
2022/03/13 04:26:50;;;;;;;;;7.00;7.00;;;;;9.78;54.14;100505.41;5062003;28;45313;-59
2022/03/13 04:29:18;;;;;;;;;9.00;8.50;;;;;9.78;54.12;100496.66;5061866;28;45545;-59
2022/03/13 04:31:44;;;;;;;;;11.25;8.00;;;;;9.78;54.22;100505.41;5061805;28;45260;-59
2022/03/13 04:34:10;;;;;;;;;11.25;8.25;;;;;9.78;54.15;100501.91;5061699;28;45249;-59
2022/03/13 04:36:37;;;;;;;;;6.25;6.25;;;;;9.74;54.12;100501.09;5060814;28;45402;-59
2022/03/13 04:39:04;;;;;;;;;8.50;7.25;;;;;9.75;54.08;100502.81;5070533;28;45437;-59
2022/03/13 04:41:29;;;;;;;;;6.50;6.50;;;;;9.79;54.21;100511.53;5061546;28;46272;-59
2022/03/13 04:43:55;;;;;;;;;8.50;7.50;;;;;9.79;54.13;100501.03;5061602;28;45323;-59
2022/03/13 04:46:21;;;;;;;;;8.00;7.00;;;;;9.79;53.96;100498.41;5062073;28;45325;-59
2022/03/13 04:48:46;;;;;;;;;8.75;6.75;;;;;9.80;54.19;100508.00;5061639;28;45538;-59
2022/03/13 04:51:12;;;;;;;;;9.50;6.75;;;;;9.80;54.24;100508.88;5061622;28;45417;-60
2022/03/13 04:53:37;;;;;;;;;4.25;4.25;;;;;9.81;54.22;100510.63;5061544;28;45272;-59
2022/03/13 04:56:04;;;;;;;;;7.50;4.50;;;;;9.83;53.98;100511.44;5061619;28;45370;-59
2022/03/13 04:58:30;;;;;;;;;3.50;3.50;;;;;9.82;53.83;100506.22;5061530;28;45482;-59
2022/03/13 05:00:55;;;;;;;;;5.00;4.75;;;;;9.84;53.97;100496.59;5061433;28;45373;-59
2022/03/13 05:03:21;;;;;;;;;5.00;5.00;;;;;9.84;53.99;100500.06;5061402;28;45387;-59
2022/03/13 05:05:46;;;;;;;;;6.00;5.50;;;;;9.87;54.06;100496.50;5061667;28;45289;-59
2022/03/13 05:08:15;;;;;;;;;6.00;6.00;;;;;9.89;53.85;100497.38;5061329;28;45399;-59
2022/03/13 05:10:43;;;;;;;;;6.00;5.75;;;;;9.90;54.05;100493.88;5061140;28;46234;-59
2022/03/13 05:13:14;;;;;;;;;6.00;5.00;;;;;9.91;54.08;100490.31;5060957;28;45453;-59
2022/03/13 05:15:44;;;;;;;;;7.00;6.00;;;;;9.93;54.04;100486.78;5061470;28;45307;-59
2022/03/13 05:18:09;;;;;;;;;5.75;5.75;;;;;9.90;53.99;100478.97;5061278;28;45256;-60
2022/03/13 05:20:35;;;;;;;;;5.25;4.25;;;;;9.97;54.01;100486.75;5059734;28;45432;-60
2022/03/13 05:23:05;;;;;;;;;7.00;5.25;;;;;9.97;54.01;100490.22;5061040;28;45429;-59
2022/03/13 05:25:32;;;;;;;;;5.00;5.00;;;;;9.98;54.14;100483.25;5059702;28;45310;-59
2022/03/13 05:27:58;;;;;;;;;6.00;5.00;;;;;10.00;54.07;100484.06;5058941;28;45553;-59
2022/03/13 05:30:24;;;;;;;;;5.00;4.75;;;;;10.01;53.80;100494.56;5060897;28;46958;-60
2022/03/13 05:32:50;;;;;;;;;6.75;5.25;;;;;10.03;53.78;100494.53;5059546;28;45376;-59
2022/03/13 05:35:16;;;;;;;;;6.00;6.00;;;;;10.01;53.70;100491.06;5061226;28;45295;-60
2022/03/13 05:37:42;;;;;;;;;6.75;5.00;;;;;9.99;53.70;100496.34;5060889;28;45452;-59
2022/03/13 05:40:13;;;;;;;;;4.75;4.00;;;;;10.01;53.66;100498.94;5069478;28;45384;-59
2022/03/13 05:42:44;;;;;;;;;5.00;3.75;;;;;9.99;53.65;100504.22;5060711;28;45473;-59
2022/03/13 05:45:11;;;;;;;;;5.50;4.50;;;;;9.99;53.69;100512.09;5060754;28;45279;-59
2022/03/13 05:47:48;;;;;;;;;7.00;6.00;;;;;9.98;53.66;100507.72;5060824;28;45229;-59
2022/03/13 05:50:14;;;;;;;;;5.00;5.00;;;;;9.96;53.83;100504.28;5060871;28;46146;-59
2022/03/13 05:52:41;;;;;;;;;4.25;4.25;;;;;9.98;53.80;100501.63;5060751;28;45248;-60
2022/03/13 05:55:07;;;;;;;;;6.75;5.25;;;;;9.95;53.88;100505.16;5059392;28;45411;-60
2022/03/13 05:57:34;;;;;;;;;6.00;3.50;;;;;9.94;53.68;100503.41;5060465;28;45340;-60
2022/03/13 05:59:59;;;;;;;;;5.25;5.00;;;;;9.91;53.61;100501.72;5060296;28;45434;-60
2022/03/13 06:02:24;;;;;;;;;4.75;4.75;;;;;9.92;53.55;100497.31;5060537;28;45417;-60
2022/03/13 06:04:52;;;;;;;;;4.00;4.00;;;;;9.91;53.70;100509.59;5060697;28;45363;-60
2022/03/13 06:07:17;;;;;;;;;5.75;5.75;;;;;9.89;53.44;100511.34;5060591;28;45185;-60
2022/03/13 06:09:43;;;;;;;;;5.75;5.00;;;;;9.90;53.50;100514.88;5059813;28;46118;-59
2022/03/13 06:12:08;;;;;;;;;5.75;5.50;;;;;9.88;53.78;100519.25;5060433;28;45241;-60
2022/03/13 06:14:34;;;;;;;;;6.00;6.00;;;;;9.88;53.61;100511.38;5059167;28;45299;-60
2022/03/13 06:16:59;;;;;;;;;7.00;7.00;;;;;9.86;53.45;100516.66;5060565;28;45164;-60
2022/03/13 06:19:25;;;;;;;;;8.50;8.00;;;;;9.85;53.48;100519.28;5060151;28;45395;-60
2022/03/13 06:21:50;;;;;;;;;6.00;5.25;;;;;9.84;53.60;100523.69;5060450;28;45387;-59
2022/03/13 06:24:19;;;;;;;;;7.75;7.75;;;;;9.84;53.41;100528.06;5060283;28;45292;-59
2022/03/13 06:26:45;;;;;;;;;8.00;5.25;;;;;9.85;53.33;100529.78;5059979;28;45303;-60
2022/03/13 06:29:14;;;;;;;;;7.50;6.25;;;;;9.85;53.43;100529.78;5059908;28;45230;-60
2022/03/13 06:31:40;;;;;;;;;7.00;5.00;;;;;9.84;53.62;100531.56;5060136;28;45446;-59
2022/03/13 06:34:06;;;;;;;;;4.25;4.25;;;;;9.78;53.68;100531.63;5058874;28;45292;-59
2022/03/13 06:36:31;;;;;;;;;6.00;6.00;;;;;9.83;53.38;100535.06;5060065;28;45446;-59
2022/03/13 06:38:57;;;;;;;;;5.00;5.00;;;;;9.83;53.67;100534.22;5066471;28;46671;-59
2022/03/13 06:41:23;;;;;;;;;5.00;4.50;;;;;9.80;53.60;100528.97;5059259;28;45256;-59
2022/03/13 06:43:49;;;;;;;;;5.00;5.00;;;;;9.80;53.69;100537.75;5058711;28;45386;-59
2022/03/13 06:46:14;;;;;;;;;4.25;4.25;;;;;9.81;53.63;100534.22;5059814;28;45628;-59
2022/03/13 06:48:40;;;;;;;;;6.75;4.75;;;;;9.79;53.53;100530.75;5059647;28;45297;-59
2022/03/13 06:51:06;;;;;;;;;6.50;6.00;;;;;9.83;53.42;100540.31;5059854;28;45454;-59
2022/03/13 06:53:35;;;;;;;;;2.50;2.50;;;;;9.82;53.34;100543.81;5059926;28;45406;-58
2022/03/13 06:56:00;;;;;;;;;4.25;3.25;;;;;9.85;53.37;100541.16;5059692;28;45438;-59
2022/03/13 06:58:26;;;;;;;;;4.25;4.25;;;;;9.87;53.47;100546.38;5059651;28;45466;-59
2022/03/13 07:00:52;;;;;;;;;4.50;4.00;;;;;9.87;53.36;100544.66;5059810;28;45375;-59
2022/03/13 07:03:17;;;;;;;;;6.25;4.75;;;;;9.89;53.55;100547.25;5059709;28;45340;-59
2022/03/13 07:05:42;;;;;;;;;5.75;5.00;;;;;9.90;53.32;100544.59;5059682;28;45325;-59
2022/03/13 07:08:08;;;;;;;;;4.00;4.00;;;;;9.91;53.42;100545.44;5059412;28;45347;-59
2022/03/13 07:10:33;;;;;;;;;3.75;3.50;;;;;9.91;53.51;100542.81;5059620;28;45449;-58
2022/03/13 07:12:59;;;;;;;;;5.00;4.00;;;;;9.91;53.37;100533.22;5059510;28;45730;-58
2022/03/13 07:15:27;;;;;;;;;4.50;4.50;;;;;9.89;53.32;100532.34;5059685;28;45370;-59
2022/03/13 07:17:53;;;;;;;;;5.00;4.00;;;;;9.95;53.50;100535.78;5059273;28;46352;-59
2022/03/13 07:20:19;;;;;;;;;4.50;3.00;;;;;9.96;53.58;100530.53;5059391;28;45319;-59
2022/03/13 07:22:46;;;;;;;;;3.00;3.00;;;;;9.95;53.33;100526.16;5059487;28;45212;-59
2022/03/13 07:25:12;;;;;;;;;4.75;4.75;;;;;9.99;53.25;100529.59;5041188;28;45500;-58
2022/03/13 07:27:39;;;;;;;;;5.25;4.50;;;;;10.00;53.36;100526.94;5058894;28;46210;-59
2022/03/13 07:30:06;;;;;;;;;4.00;3.00;;;;;10.03;53.20;100528.66;5059259;28;45325;-58
2022/03/13 07:32:32;;;;;;;;;5.00;4.25;;;;;10.01;53.44;100523.44;5058033;28;45281;-59
2022/03/13 07:34:57;;;;;;;;;4.50;4.50;;;;;10.06;53.26;100531.22;5059473;28;45236;-59
2022/03/13 07:37:22;;;;;;;;;5.50;5.50;;;;;10.03;53.31;100526.88;5059239;28;45490;-59
2022/03/13 07:39:48;;;;;;;;;5.00;5.00;;;;;10.09;53.09;100526.78;5068173;28;45396;-58
2022/03/13 07:42:16;;;;;;;;;4.00;4.00;;;;;10.09;53.39;100532.06;5059247;28;45311;-58
2022/03/13 07:44:42;;;;;;;;;5.00;5.00;;;;;10.13;53.41;100539.91;5059322;28;45355;-59
2022/03/13 07:47:08;;;;;;;;;4.25;3.25;;;;;10.11;53.18;100532.03;5058982;28;45520;-59
2022/03/13 07:49:34;;;;;;;;;3.00;3.00;;;;;10.15;53.30;100538.09;5059243;28;45362;-58
2022/03/13 07:52:00;;;;;;;;;5.75;3.00;;;;;10.17;53.22;100542.44;5061237;28;45310;-59
2022/03/13 07:54:25;;;;;;;;;4.50;4.00;;;;;10.17;53.36;100538.94;5062526;28;45275;-59
2022/03/13 07:56:51;;;;;;;;;6.00;5.00;;;;;10.18;53.33;100538.91;5062007;28;45429;-58
2022/03/13 07:59:16;;;;;;;;;3.75;3.75;;;;;10.21;53.27;100538.88;5062592;28;45205;-59
2022/03/13 08:01:41;;;;;;;;;5.50;4.00;;;;;10.27;53.02;100537.06;5062396;28;45219;-59
2022/03/13 08:04:07;;;;;;;;;4.75;4.25;;;;;10.27;53.30;100535.28;5062453;28;45650;-58
2022/03/13 08:06:37;;;;;;;;;3.00;3.00;;;;;10.29;53.28;100525.63;5062260;28;46178;-59
2022/03/13 08:09:04;;;;;;;;;4.50;4.50;;;;;10.33;52.97;100535.19;5060954;28;45522;-59
2022/03/13 08:11:29;;;;;;;;;3.00;2.00;;;;;10.33;53.21;100523.81;5061971;28;45403;-59
2022/03/13 08:13:55;;;;;;;;;4.50;4.50;;;;;10.39;52.82;100521.97;5061046;28;45501;-66
2022/03/13 08:16:20;;;;;;;;;3.00;3.00;;;;;10.40;53.10;100517.56;5062029;28;45929;-59
2022/03/13 08:18:46;;;;;;;;;4.00;4.00;;;;;10.44;53.08;100518.41;5062470;28;45288;-59
2022/03/13 08:21:13;;;;;;;;;4.00;2.75;;;;;10.44;53.03;100510.50;5062135;28;45222;-59
2022/03/13 08:23:38;;;;;;;;;5.25;3.50;;;;;10.42;52.81;100505.28;5061098;28;45605;-59
2022/03/13 08:26:04;;;;;;;;;3.50;3.00;;;;;10.51;52.63;100514.78;5060026;28;48376;-58
2022/03/13 08:28:29;;;;;;;;;3.50;2.25;;;;;10.49;52.91;100506.94;5060808;28;45302;-60
2022/03/13 08:30:55;;;;;;;;;2.50;2.50;;;;;10.60;53.04;100508.50;5062162;28;45224;-59
2022/03/13 08:33:20;;;;;;;;;4.50;3.00;;;;;10.61;52.81;100500.56;5060780;28;45250;-59
2022/03/13 08:35:46;;;;;;;;;4.50;3.00;;;;;10.64;52.88;100505.78;5061729;28;45427;-60
2022/03/13 08:38:11;;;;;;;;;2.00;1.75;;;;;10.67;52.85;100508.34;5065123;28;45435;-61
2022/03/13 08:40:36;;;;;;;;;2.00;2.00;;;;;10.72;52.75;100514.38;5067601;28;45559;-61
2022/03/13 08:43:02;;;;;;;;;1.00;1.00;;;;;10.75;52.71;100505.56;5061888;28;45277;-60
2022/03/13 08:45:27;;;;;;;;;1.25;1.25;;;;;10.82;52.64;100519.50;5061555;28;45593;-60
2022/03/13 08:47:53;;;;;;;;;1.75;1.75;;;;;10.88;52.53;100524.63;5062053;28;45315;-63
2022/03/13 08:50:20;;;;;;;;;1.25;1.25;;;;;10.91;52.49;100518.44;5061685;28;45401;-60
2022/03/13 08:52:45;;;;;;;;;1.00;1.00;;;;;11.01;52.64;100514.75;5061894;28;45319;-60
2022/03/13 08:55:14;;;;;;;;;2.00;2.00;;;;;11.03;52.55;100508.56;5060081;28;45862;-60
2022/03/13 08:57:44;;;;;;;;;1.25;1.25;;;;;11.14;52.38;100526.72;5061498;28;45323;-60
2022/03/13 09:00:11;;;;;;;;;2.00;2.00;;;;;11.20;52.50;100523.13;5060254;28;45320;-60
2022/03/13 09:02:37;;;;;;;;;1.00;1.00;;;;;11.27;52.39;100506.31;5060514;28;45396;-59
2022/03/13 09:05:03;;;;;;;;;3.00;2.00;;;;;11.35;52.25;100509.66;5061298;28;45292;-59
2022/03/13 09:07:28;;;;;;;;;2.25;2.00;;;;;11.43;52.32;100506.84;5061298;28;45230;-59
2022/03/13 09:09:54;;;;;;;;;1.00;1.00;;;;;11.50;52.15;100508.47;5061306;28;45289;-59
2022/03/13 09:12:19;;;;;;;;;1.25;1.25;;;;;11.59;51.92;100506.53;5061178;28;45501;-59
2022/03/13 09:14:45;;;;;;;;;1.00;1.00;;;;;11.66;52.12;100513.38;5059933;28;48336;-60
2022/03/13 09:17:10;;;;;;;;;1.50;1.50;;;;;11.73;52.06;100511.50;5061305;28;45424;-60
2022/03/13 09:19:36;;;;;;;;;1.50;1.50;;;;;11.83;52.00;100505.09;5059936;28;45318;-59
2022/03/13 09:22:02;;;;;;;;;1.75;1.75;;;;;11.93;51.91;100514.53;5061293;28;45334;-59
2022/03/13 09:24:27;;;;;;;;;3.00;1.00;;;;;12.01;51.77;100515.25;5060770;28;47046;-59
2022/03/13 09:26:53;;;;;;;;;14.75;14.25;;;;;12.08;51.92;100520.38;5060670;28;45288;-59
2022/03/13 09:29:18;;;;;;;;;3.00;2.00;;;;;12.14;51.77;100518.44;5061173;28;45343;-59
2022/03/13 09:31:44;;;;;;;;;2.50;2.50;;;;;12.23;51.63;100519.13;5059799;28;45551;-59
2022/03/13 09:34:10;;;;;;;;;2.25;2.25;;;;;12.31;51.83;100517.16;5060895;28;45312;-58
2022/03/13 09:36:36;;;;;;;;;2.00;2.00;;;;;12.36;51.97;100510.00;5061323;28;45307;-59
2022/03/13 09:39:07;;;;;;;;;2.00;2.00;;;;;12.44;51.44;100515.06;5069626;28;45224;-59
2022/03/13 09:41:32;;;;;;;;;2.25;2.25;;;;;12.51;51.60;100508.75;5060590;28;45499;-59
2022/03/13 09:43:58;;;;;;;;;1.75;1.75;;;;;12.58;51.37;100510.34;5060762;28;45394;-59
2022/03/13 09:46:23;;;;;;;;;1.00;1.00;;;;;12.65;51.50;100508.38;5060808;28;45306;-59
2022/03/13 09:48:51;;;;;;;;;2.50;2.00;;;;;12.73;51.34;100500.28;5060779;28;45311;-59
2022/03/13 09:51:16;;;;;;;;;1.00;1.00;;;;;12.78;51.24;100507.16;5060803;28;45426;-60
2022/03/13 09:53:42;;;;;;;;;2.00;2.00;;;;;12.83;51.41;100518.44;5060623;28;46115;-59
2022/03/13 09:56:07;;;;;;;;;1.00;1.00;;;;;12.91;51.20;100520.88;5060452;28;45222;-60
2022/03/13 09:58:34;;;;;;;;;1.00;1.00;;;;;12.95;51.21;100514.59;5060642;28;45371;-59
2022/03/13 10:01:00;;;;;;;;;2.00;2.00;;;;;13.00;51.34;100518.00;5060755;28;45395;-59
2022/03/13 10:03:25;;;;;;;;;2.00;1.25;;;;;13.07;50.92;100507.25;5060514;28;45279;-59
2022/03/13 10:05:54;;;;;;;;;2.50;2.00;;;;;13.08;51.32;100503.72;5060329;28;45371;-59
2022/03/13 10:08:30;;;;;;;;;1.00;1.00;;;;;13.13;51.04;100512.34;5060593;28;45347;-59
2022/03/13 10:10:57;;;;;;;;;1.00;1.00;;;;;13.15;51.12;100508.75;5059983;28;45315;-59
2022/03/13 10:13:39;;;;;;;;;1.00;1.00;;;;;13.14;50.81;100517.63;5060219;28;46216;-60
2022/03/13 10:16:07;;;;;;;;;2.50;2.00;;;;;13.18;51.03;100518.38;5060355;28;45410;-59
2022/03/13 10:18:33;;;;;;;;;2.00;2.00;;;;;13.23;50.86;100515.59;5060223;28;45184;-60
2022/03/13 10:21:12;;;;;;;;;3.00;2.25;;;;;13.24;51.01;100506.78;5060191;28;45544;-59
2022/03/13 10:23:37;;;;;;;;;2.50;2.00;;;;;13.24;50.32;100509.41;5058743;28;47717;-59
2022/03/13 10:26:05;;;;;;;;;1.75;1.75;;;;;13.28;50.15;100511.06;5059434;28;45340;-60
2022/03/13 10:28:38;;;;;;;;;1.00;1.00;;;;;13.32;50.44;100503.00;5060275;28;45346;-60
2022/03/13 10:31:03;;;;;;;;;2.00;2.00;;;;;13.36;50.83;100501.16;5060013;28;45302;-60
2022/03/13 10:33:35;;;;;;;;;1.75;1.50;;;;;13.38;50.75;100506.41;5058565;28;46380;-60
2022/03/13 10:36:15;;;;;;;;;2.00;2.00;;;;;13.37;50.58;100499.38;5059936;28;45343;-60
2022/03/13 10:38:41;;;;;;;;;2.00;2.00;;;;;13.36;50.60;100497.63;5065992;28;45362;-60
2022/03/13 10:41:08;;;;;;;;;2.50;2.00;;;;;13.33;50.39;100485.38;5059476;28;45283;-60
2022/03/13 10:43:40;;;;;;;;;1.00;1.00;;;;;13.38;50.17;100488.78;5058745;28;48186;-60
2022/03/13 10:46:06;;;;;;;;;0.50;0.50;;;;;13.40;50.37;100496.69;5058491;28;45497;-60
2022/03/13 10:48:36;;;;;;;;;2.00;0.50;;;;;13.39;50.02;100492.31;5058698;28;45306;-60
2022/03/13 10:51:03;;;;;;;;;1.50;1.50;;;;;13.38;50.30;100493.22;5058564;28;45368;-60
2022/03/13 10:53:30;;;;;;;;;1.00;1.00;;;;;13.35;50.09;100490.66;5059674;28;46021;-60
2022/03/13 10:56:12;;;;;;;;;4.50;3.25;;;;;13.36;49.73;100495.00;5059418;28;45197;-60
2022/03/13 10:58:48;;;;;;;;;2.00;2.00;;;;;13.34;49.65;100489.75;5058470;28;45395;-59
2022/03/13 11:01:19;;;;;;;;;1.75;1.75;;;;;13.35;49.69;100504.69;5059869;28;45323;-60
2022/03/13 11:03:59;;;;;;;;;2.00;2.00;;;;;13.39;49.69;100503.72;5058133;28;46285;-59
2022/03/13 11:06:26;;;;;;;;;3.75;3.00;;;;;13.38;49.89;100501.13;5059572;28;45341;-59
2022/03/13 11:08:55;;;;;;;;;4.00;3.00;;;;;13.39;50.07;100498.44;5059332;28;45463;-59
2022/03/13 11:11:31;;;;;;;;;4.75;4.75;;;;;13.41;49.55;100501.91;5059156;28;45383;-59
2022/03/13 11:14:01;;;;;;;;;3.75;3.75;;;;;13.43;49.83;100501.84;5059398;28;46263;-59
2022/03/13 11:16:31;;;;;;;;;3.25;3.00;;;;;13.43;49.56;100507.13;5058201;28;45276;-58
2022/03/13 11:19:05;;;;;;;;;7.00;3.50;;;;;13.44;49.62;100498.31;5059527;28;45558;-58
2022/03/13 11:21:32;;;;;;;;;2.00;1.00;;;;;13.43;49.71;100502.75;5058140;28;45564;-60
2022/03/13 11:23:58;;;;;;;;;3.50;2.00;;;;;13.42;49.54;100500.13;5059105;28;46249;-59